createdAt,value
2022-08-05T00:02:51.148Z,22.45
2022-08-05T00:06:04.838Z,22.43
2022-08-05T00:09:19.487Z,22.38
2022-08-05T00:12:22.758Z,22.31
2022-08-05T00:15:54.913Z,22.26
2022-08-05T00:18:49.378Z,22.32
2022-08-05T00:21:54.112Z,22.19
2022-08-05T00:24:56.930Z,22.13
2022-08-05T00:27:59.935Z,22.08
2022-08-05T00:31:05.048Z,21.99
2022-08-05T00:34:54.080Z,21.97
2022-08-05T00:37:50.987Z,21.90
2022-08-05T00:40:59.180Z,21.83
2022-08-05T00:44:03.202Z,21.79
2022-08-05T00:47:06.007Z,21.79
2022-08-05T00:50:09.734Z,21.73
2022-08-05T00:54:00.867Z,21.63
2022-08-05T00:56:36.003Z,21.62
2022-08-05T00:59:44.429Z,21.62
2022-08-05T01:02:48.208Z,21.57
2022-08-05T01:05:54.908Z,21.52
2022-08-05T01:08:57.858Z,21.50
2022-08-05T01:12:18.164Z,21.44
2022-08-05T01:15:36.481Z,21.39
2022-08-05T01:18:48.091Z,21.31
2022-08-05T01:22:24.246Z,21.31
2022-08-05T01:25:53.464Z,21.27
2022-08-05T01:29:13.789Z,21.20
2022-08-05T01:32:20.960Z,21.14
2022-08-05T01:35:51.085Z,21.16
2022-08-05T01:38:53.446Z,21.16
2022-08-05T01:41:58.233Z,21.08
2022-08-05T01:45:02.081Z,21.03
2022-08-05T01:48:10.254Z,20.95
2022-08-05T01:51:16.624Z,20.90
2022-08-05T01:54:25.682Z,20.84
2022-08-05T01:58:10.036Z,20.85
2022-08-05T02:00:58.846Z,20.84
2022-08-05T02:04:03.044Z,20.76
2022-08-05T02:07:06.147Z,20.78
2022-08-05T02:10:11.312Z,20.73
2022-08-05T02:13:53.273Z,20.65
2022-08-05T02:17:03.223Z,20.63
2022-08-05T02:20:11.328Z,20.65
2022-08-05T02:23:17.627Z,20.58
2022-08-05T02:26:38.793Z,20.57
2022-08-05T02:29:58.668Z,20.58
2022-08-05T02:33:04.806Z,20.57
2022-08-05T02:36:15.573Z,20.63
2022-08-05T02:39:21.541Z,20.62
2022-08-05T02:42:26.122Z,20.57
2022-08-05T02:45:52.046Z,20.53
2022-08-05T02:48:57.238Z,20.54
2022-08-05T02:52:04.248Z,20.50
2022-08-05T02:55:10.693Z,20.48
2022-08-05T02:58:16.694Z,20.40
2022-08-05T03:01:27.276Z,20.37
2022-08-05T03:04:30.930Z,20.45
2022-08-05T03:08:01.213Z,20.39
2022-08-05T03:11:53.184Z,20.29
2022-08-05T03:14:21.218Z,20.31
2022-08-05T03:17:23.827Z,20.41
2022-08-05T03:20:27.934Z,20.36
2022-08-05T03:23:30.731Z,20.30
2022-08-05T03:26:38.109Z,20.31
2022-08-05T03:29:46.002Z,20.28
2022-08-05T03:33:05.854Z,20.27
2022-08-05T03:36:12.099Z,20.27
2022-08-05T03:39:20.069Z,20.19
2022-08-05T03:42:32.281Z,20.16
2022-08-05T03:45:58.216Z,20.11
2022-08-05T03:49:02.112Z,20.12
2022-08-05T03:52:38.454Z,20.10
2022-08-05T03:56:05.719Z,20.08
2022-08-05T03:59:07.223Z,20.06
2022-08-05T04:02:14.866Z,20.07
2022-08-05T04:05:21.351Z,20.05
2022-08-05T04:08:34.819Z,20.14
2022-08-05T04:11:47.651Z,20.19
2022-08-05T04:14:57.568Z,20.18
2022-08-05T04:18:06.785Z,20.44
2022-08-05T04:21:10.911Z,20.44
2022-08-05T04:24:19.345Z,20.49
2022-08-05T04:27:33.247Z,20.54
2022-08-05T04:30:45.967Z,20.59
2022-08-05T04:34:17.537Z,20.79
2022-08-05T04:37:11.823Z,20.87
2022-08-05T04:40:17.068Z,20.96
2022-08-05T04:43:22.360Z,21.00
2022-08-05T04:46:28.287Z,21.15
2022-08-05T04:50:01.633Z,21.33
2022-08-05T04:52:53.969Z,21.46
2022-08-05T04:56:32.998Z,21.56
2022-08-05T04:59:24.174Z,21.75
2022-08-05T05:02:43.308Z,21.91
2022-08-05T05:06:39.151Z,22.12
2022-08-05T05:09:14.138Z,22.16
2022-08-05T05:12:19.963Z,22.27
2022-08-05T05:15:57.417Z,22.41
2022-08-05T05:19:16.531Z,22.55
2022-08-05T05:22:22.620Z,22.56
2022-08-05T05:25:40.358Z,22.77
2022-08-05T05:28:45.049Z,22.94
2022-08-05T05:31:47.774Z,23.18
2022-08-05T05:34:52.314Z,23.32
2022-08-05T05:38:01.971Z,23.40
2022-08-05T05:41:05.348Z,23.50
2022-08-05T05:44:35.744Z,23.67
2022-08-05T05:48:06.094Z,23.82
2022-08-05T05:50:57.614Z,23.84
2022-08-05T05:54:03.377Z,23.91
2022-08-05T05:57:05.842Z,24.04
2022-08-05T06:00:19.597Z,24.26
2022-08-05T06:03:39.959Z,24.40
2022-08-05T06:06:47.704Z,24.48
2022-08-05T06:10:01.376Z,24.71
2022-08-05T06:13:07.236Z,24.71
2022-08-05T06:16:31.067Z,24.83
2022-08-05T06:19:34.608Z,24.99
2022-08-05T06:22:38.341Z,25.18
2022-08-05T06:26:12.812Z,25.47
2022-08-05T06:29:06.434Z,25.47
2022-08-05T06:32:29.425Z,25.39
2022-08-05T06:36:08.077Z,25.55
2022-08-05T06:38:54.919Z,25.71
2022-08-05T06:42:01.288Z,25.89
2022-08-05T06:45:08.626Z,26.07
2022-08-05T06:48:55.351Z,26.01
2022-08-05T06:51:34.275Z,26.17
2022-08-05T06:54:38.747Z,26.38
2022-08-05T06:57:57.282Z,26.45
2022-08-05T07:01:06.188Z,26.41
2022-08-05T07:04:09.159Z,26.27
2022-08-05T07:07:12.723Z,26.41
2022-08-05T07:10:18.011Z,26.50
2022-08-05T07:13:57.647Z,26.41
2022-08-05T07:18:02.422Z,26.44
2022-08-05T07:20:34.131Z,26.55
2022-08-05T07:23:49.132Z,26.67
2022-08-05T07:26:53.121Z,26.45
2022-08-05T07:30:27.255Z,26.73
2022-08-05T07:33:36.878Z,26.99
2022-08-05T07:36:40.286Z,27.28
2022-08-05T07:40:26.679Z,27.54
2022-08-05T07:43:20.401Z,27.66
2022-08-05T07:46:30.584Z,27.67
2022-08-05T07:49:33.667Z,27.91
2022-08-05T07:52:46.686Z,28.16
2022-08-05T07:56:06.294Z,28.58
2022-08-05T07:59:13.116Z,28.79
2022-08-05T08:02:17.830Z,29.09
2022-08-05T08:05:21.120Z,29.37
2022-08-05T08:08:23.747Z,29.55
2022-08-05T08:11:47.171Z,29.57
2022-08-05T08:14:52.367Z,29.41
2022-08-05T08:17:55.200Z,29.52
2022-08-05T08:21:09.825Z,29.89
2022-08-05T08:24:18.987Z,30.09
2022-08-05T08:27:23.178Z,30.19
2022-08-05T08:30:49.504Z,30.40
2022-08-05T08:33:53.265Z,30.75
2022-08-05T08:37:01.762Z,30.93
2022-08-05T08:40:08.527Z,31.08
2022-08-05T08:44:54.757Z,31.17
2022-08-05T08:46:40.273Z,31.25
2022-08-05T08:50:13.120Z,31.31
2022-08-05T08:53:12.291Z,31.36
2022-08-05T08:56:15.912Z,31.26
2022-08-05T08:59:20.769Z,31.31
2022-08-05T09:02:26.860Z,31.55
2022-08-05T09:05:38.642Z,31.64
2022-08-05T09:08:52.423Z,31.71
2022-08-05T09:11:59.326Z,31.90
2022-08-05T09:15:09.663Z,32.21
2022-08-05T09:18:13.292Z,32.46
2022-08-05T09:21:20.785Z,32.54
2022-08-05T09:24:24.189Z,32.55
2022-08-05T09:28:05.788Z,32.43
2022-08-05T09:31:43.806Z,32.61
2022-08-05T09:34:47.672Z,32.64
2022-08-05T09:38:16.341Z,32.76
2022-08-05T09:41:18.003Z,32.97
2022-08-05T09:44:42.392Z,33.21
2022-08-05T09:47:55.372Z,33.31
2022-08-05T09:51:01.415Z,33.38
2022-08-05T09:54:08.388Z,33.43
2022-08-05T09:57:29.272Z,33.53
2022-08-05T10:00:38.353Z,33.88
2022-08-05T10:03:58.528Z,33.80
2022-08-05T10:07:01.797Z,33.80
2022-08-05T10:10:38.414Z,33.67
2022-08-05T10:13:47.835Z,33.87
2022-08-05T10:16:53.504Z,34.00
2022-08-05T10:20:04.207Z,34.14
2022-08-05T10:23:22.196Z,34.21
2022-08-05T10:26:48.963Z,34.03
2022-08-05T10:30:41.567Z,34.28
2022-08-05T10:33:17.543Z,33.98
2022-08-05T10:36:23.552Z,33.89
2022-08-05T10:40:03.138Z,34.11
2022-08-05T10:43:04.904Z,34.43
2022-08-05T10:46:10.540Z,34.50
2022-08-05T10:49:16.597Z,34.31
2022-08-05T10:52:49.656Z,34.30
2022-08-05T10:56:21.272Z,34.44
2022-08-05T11:00:03.194Z,34.49
2022-08-05T11:03:23.652Z,34.33
2022-08-05T11:06:30.746Z,34.38
2022-08-05T11:09:46.366Z,34.60
2022-08-05T11:12:54.244Z,34.95
2022-08-05T11:16:47.817Z,35.02
2022-08-05T11:20:11.337Z,35.12
2022-08-05T11:23:33.208Z,35.27
2022-08-05T11:26:36.578Z,35.44
2022-08-05T11:29:41.007Z,35.69
2022-08-05T11:32:43.649Z,35.58
2022-08-05T11:36:02.784Z,35.47
2022-08-05T11:39:12.195Z,35.43
2022-08-05T11:42:18.561Z,35.57
2022-08-05T11:45:26.771Z,35.69
2022-08-05T11:48:44.748Z,35.64
2022-08-05T11:51:53.404Z,35.40
2022-08-05T11:54:57.504Z,35.33
2022-08-05T11:58:09.556Z,35.34
2022-08-05T12:01:22.417Z,34.97
2022-08-05T12:04:27.292Z,34.96
2022-08-05T12:08:09.139Z,35.20
2022-08-05T12:11:05.699Z,35.43
2022-08-05T12:14:10.327Z,35.38
2022-08-05T12:18:03.202Z,35.48
2022-08-05T12:20:38.712Z,35.19
2022-08-05T12:23:52.967Z,35.15
2022-08-05T12:26:56.746Z,35.35
2022-08-05T12:30:01.420Z,35.01
2022-08-05T12:33:07.300Z,35.20
2022-08-05T12:36:30.652Z,35.54
2022-08-05T12:39:37.321Z,35.76
2022-08-05T12:42:41.448Z,35.56
2022-08-05T12:45:51.464Z,35.62
2022-08-05T12:49:00.965Z,35.72
2022-08-05T12:52:23.922Z,35.41
2022-08-05T12:55:32.465Z,35.45
2022-08-05T12:58:49.408Z,35.40
2022-08-05T13:02:06.884Z,35.48
2022-08-05T13:05:14.504Z,35.52
2022-08-05T13:08:18.583Z,35.55
2022-08-05T13:12:01.952Z,35.50
2022-08-05T13:15:05.689Z,35.63
2022-08-05T13:18:10.768Z,35.84
2022-08-05T13:21:14.221Z,35.71
2022-08-05T13:24:36.265Z,35.88
2022-08-05T13:27:42.849Z,36.01
2022-08-05T13:30:45.829Z,35.91
2022-08-05T13:34:22.684Z,36.14
2022-08-05T13:37:13.853Z,36.32
2022-08-05T13:40:48.124Z,36.45
2022-08-05T13:43:55.231Z,36.48
2022-08-05T13:47:04.971Z,36.75
2022-08-05T13:50:16.527Z,36.95
2022-08-05T13:53:19.710Z,37.09
2022-08-05T13:56:22.323Z,36.89
2022-08-05T13:59:27.005Z,36.85
2022-08-05T14:02:31.370Z,36.84
2022-08-05T14:06:25.039Z,36.83
2022-08-05T14:08:59.413Z,36.77
2022-08-05T14:12:17.705Z,36.92
2022-08-05T14:16:04.692Z,37.21
2022-08-05T14:18:49.244Z,37.27
2022-08-05T14:22:11.814Z,37.11
2022-08-05T14:25:21.394Z,36.82
2022-08-05T14:28:27.066Z,36.88
2022-08-05T14:32:03.641Z,37.15
2022-08-05T14:34:53.835Z,36.99
2022-08-05T14:37:59.476Z,37.29
2022-08-05T14:41:07.459Z,37.53
2022-08-05T14:44:20.412Z,37.58
2022-08-05T14:47:58.478Z,37.75
2022-08-05T14:50:47.797Z,38.02
2022-08-05T14:54:06.630Z,38.32
2022-08-05T14:57:15.107Z,38.36
2022-08-05T15:00:20.011Z,38.38
2022-08-05T15:03:23.032Z,38.81
2022-08-05T15:06:28.009Z,39.16
2022-08-05T15:09:54.271Z,39.67
2022-08-05T15:13:01.142Z,40.29
2022-08-05T15:16:06.766Z,41.29
2022-08-05T15:19:23.487Z,43.20
2022-08-05T15:22:28.184Z,45.95
2022-08-05T15:25:41.111Z,48.08
2022-08-05T15:28:54.016Z,48.83
2022-08-05T15:31:56.585Z,49.53
2022-08-05T15:34:59.378Z,49.71
2022-08-05T15:38:35.451Z,50.44
2022-08-05T15:41:58.584Z,50.00
2022-08-05T15:44:58.108Z,50.41
2022-08-05T15:48:02.411Z,50.41
2022-08-05T15:51:05.963Z,50.71
2022-08-05T15:54:09.031Z,51.48
2022-08-05T15:57:17.621Z,51.00
2022-08-05T16:00:26.258Z,50.62
2022-08-05T16:03:43.585Z,50.05
2022-08-05T16:06:46.085Z,51.80
2022-08-05T16:09:48.904Z,51.80
2022-08-05T16:12:51.540Z,51.56
2022-08-05T16:15:55.071Z,51.79
2022-08-05T16:18:58.191Z,51.03
2022-08-05T16:22:03.732Z,50.03
2022-08-05T16:25:09.915Z,49.10
2022-08-05T16:28:14.159Z,46.32
2022-08-05T16:31:18.266Z,44.16
2022-08-05T16:34:23.444Z,42.18
2022-08-05T16:38:15.604Z,41.06
2022-08-05T16:40:55.446Z,40.34
2022-08-05T16:44:02.617Z,39.47
2022-08-05T16:47:06.069Z,38.54
2022-08-05T16:50:29.541Z,37.82
2022-08-05T16:54:13.526Z,37.02
2022-08-05T16:57:52.553Z,36.49
2022-08-05T17:00:51.558Z,36.13
2022-08-05T17:03:54.317Z,35.77
2022-08-05T17:07:03.176Z,35.61
2022-08-05T17:10:11.062Z,35.17
2022-08-05T17:13:16.933Z,34.80
2022-08-05T17:16:33.005Z,34.62
2022-08-05T17:19:36.575Z,34.29
2022-08-05T17:22:39.268Z,34.08
2022-08-05T17:25:42.162Z,33.88
2022-08-05T17:28:47.233Z,33.62
2022-08-05T17:31:58.270Z,33.38
2022-08-05T17:35:02.245Z,33.11
2022-08-05T17:38:09.598Z,32.84
2022-08-05T17:42:18.620Z,32.63
2022-08-05T17:44:35.951Z,32.39
2022-08-05T17:47:39.070Z,32.09
2022-08-05T17:50:42.668Z,31.85
2022-08-05T17:53:45.895Z,31.65
2022-08-05T17:56:57.342Z,31.36
2022-08-05T18:00:04.947Z,31.13
2022-08-05T18:03:10.918Z,30.94
2022-08-05T18:06:15.246Z,30.74
2022-08-05T18:09:18.492Z,30.61
2022-08-05T18:12:22.251Z,30.46
2022-08-05T18:15:27.658Z,30.29
2022-08-05T18:18:33.997Z,30.16
2022-08-05T18:22:07.342Z,30.04
2022-08-05T18:25:06.663Z,29.90
2022-08-05T18:28:10.004Z,29.74
2022-08-05T18:31:12.681Z,29.57
2022-08-05T18:34:21.543Z,29.44
2022-08-05T18:37:33.639Z,29.32
2022-08-05T18:41:58.336Z,29.19
2022-08-05T18:44:07.942Z,29.09
2022-08-05T18:47:12.140Z,28.98
2022-08-05T18:50:45.310Z,28.87
2022-08-05T18:53:50.797Z,28.73
2022-08-05T18:56:53.297Z,28.57
2022-08-05T19:00:03.129Z,28.49
2022-08-05T19:03:10.326Z,28.41
2022-08-05T19:06:21.665Z,28.29
2022-08-05T19:09:25.306Z,28.19
2022-08-05T19:12:32.162Z,28.08
2022-08-05T19:16:00.144Z,27.99
2022-08-05T19:18:57.974Z,27.88
2022-08-05T19:22:00.598Z,27.79
2022-08-05T19:25:04.213Z,27.73
2022-08-05T19:28:06.915Z,27.63
2022-08-05T19:31:12.985Z,27.55
2022-08-05T19:34:18.629Z,27.48
2022-08-05T19:37:21.611Z,27.41
2022-08-05T19:40:25.168Z,27.37
2022-08-05T19:44:05.326Z,27.32
2022-08-05T19:46:50.616Z,27.29
2022-08-05T19:49:57.393Z,27.20
2022-08-05T19:53:09.358Z,27.11
2022-08-05T19:56:19.757Z,27.04
2022-08-05T19:59:54.586Z,26.94
2022-08-05T20:02:54.024Z,26.88
2022-08-05T20:05:58.011Z,26.77
2022-08-05T20:09:06.121Z,26.70
2022-08-05T20:12:16.688Z,26.66
2022-08-05T20:15:22.992Z,26.59
2022-08-05T20:18:44.123Z,26.50
2022-08-05T20:21:47.580Z,26.47
2022-08-05T20:24:52.885Z,26.45
2022-08-05T20:27:56.710Z,26.41
2022-08-05T20:31:00.851Z,26.39
2022-08-05T20:34:04.494Z,26.31
2022-08-05T20:37:17.829Z,26.24
2022-08-05T20:40:26.933Z,26.24
2022-08-05T20:43:57.461Z,26.15
2022-08-05T20:46:52.479Z,26.06
2022-08-05T20:49:55.232Z,25.99
2022-08-05T20:52:58.016Z,25.91
2022-08-05T20:56:09.030Z,25.87
2022-08-05T20:59:18.936Z,25.83
2022-08-05T21:02:22.615Z,25.76
2022-08-05T21:05:47.690Z,25.76
2022-08-05T21:08:53.285Z,25.73
2022-08-05T21:12:07.741Z,25.67
2022-08-05T21:15:13.865Z,25.60
2022-08-05T21:18:16.388Z,25.54
2022-08-05T21:21:19.274Z,25.47
2022-08-05T21:24:27.235Z,25.44
2022-08-05T21:27:38.619Z,25.39
2022-08-05T21:30:41.955Z,25.32
2022-08-05T21:33:47.532Z,25.25
2022-08-05T21:36:51.874Z,25.20
2022-08-05T21:39:54.720Z,25.16
2022-08-05T21:42:59.223Z,25.08
2022-08-05T21:46:04.039Z,25.05
2022-08-05T21:49:10.026Z,25.00
2022-08-05T21:52:30.671Z,24.94
2022-08-05T21:56:01.577Z,24.89
2022-08-05T21:58:58.061Z,24.87
2022-08-05T22:02:00.596Z,24.83
2022-08-05T22:05:06.155Z,24.79
2022-08-05T22:08:22.150Z,24.75
2022-08-05T22:11:34.721Z,24.66
2022-08-05T22:14:38.790Z,24.58
2022-08-05T22:17:48.713Z,24.53
2022-08-05T22:21:04.032Z,24.54
2022-08-05T22:24:40.534Z,24.52
2022-08-05T22:28:09.028Z,24.46
2022-08-05T22:31:06.597Z,24.38
2022-08-05T22:34:09.092Z,24.34
2022-08-05T22:37:15.714Z,24.31
2022-08-05T22:40:20.345Z,24.24
2022-08-05T22:43:36.974Z,24.21
2022-08-05T22:46:41.168Z,24.20
2022-08-05T22:50:19.304Z,24.17
2022-08-05T22:53:13.087Z,24.15
2022-08-05T22:56:30.140Z,24.11
2022-08-05T22:59:45.803Z,24.01
2022-08-05T23:02:53.732Z,23.89
2022-08-05T23:05:56.617Z,23.82
2022-08-05T23:09:27.919Z,23.78
2022-08-05T23:12:24.350Z,23.70
2022-08-05T23:15:30.007Z,23.65
2022-08-05T23:18:38.510Z,23.54
2022-08-05T23:21:42.941Z,23.48
2022-08-05T23:24:51.419Z,23.40
2022-08-05T23:27:57.805Z,23.40
2022-08-05T23:31:17.535Z,23.37
2022-08-05T23:34:24.686Z,23.30
2022-08-05T23:37:27.436Z,23.22
2022-08-05T23:40:39.590Z,23.14
2022-08-05T23:44:06.520Z,23.10
2022-08-05T23:47:15.396Z,23.08
2022-08-05T23:50:20.194Z,23.06
2022-08-05T23:53:23.346Z,23.06
2022-08-05T23:56:31.079Z,22.98
